Time;durP1;ratioP1;P1;durP2;ratioP2;P2;SDS_P1;SDS_P2;PMS_P1;PMS_P2;Temp;Humidity;BMP_temperature;BMP_pressure;BME280_temperature;BME280_humidity;BME280_pressure;Samples;Min_cycle;Max_cycle;Signal;HPM_P1;HPM_P2
2022/01/31 00:02:00;;;;;;;26.50;6.82;;;5.00;99.90;;;;;;5036668;28;20623;-77
2022/01/31 00:04:27;;;;;;;25.65;9.50;;;5.00;99.90;;;;;;5035744;28;20211;-77
2022/01/31 00:06:54;;;;;;;23.02;8.40;;;5.00;99.90;;;;;;5036410;28;20254;-79
2022/01/31 00:09:22;;;;;;;35.33;7.40;;;5.10;99.90;;;;;;5044404;28;20219;-77
2022/01/31 00:11:58;;;;;;;22.63;6.10;;;5.10;99.90;;;;;;5035468;28;20588;-76
2022/01/31 00:14:38;;;;;;;26.05;7.03;;;5.10;99.90;;;;;;5041218;28;20568;-78
2022/01/31 00:17:05;;;;;;;22.98;5.93;;;5.00;99.90;;;;;;5037553;28;20556;-80
2022/01/31 00:19:34;;;;;;;23.90;8.05;;;5.00;99.90;;;;;;5031492;28;20232;-78
2022/01/31 00:22:01;;;;;;;18.92;6.65;;;5.00;99.90;;;;;;5037821;28;20243;-78
2022/01/31 00:24:28;;;;;;;29.73;6.05;;;5.00;99.90;;;;;;5037712;28;20200;-76
2022/01/31 00:26:56;;;;;;;25.85;6.00;;;5.10;99.90;;;;;;5038056;28;20201;-75
2022/01/31 00:29:23;;;;;;;21.50;6.10;;;5.10;99.90;;;;;;5049410;28;20220;-77
2022/01/31 00:31:50;;;;;;;16.40;6.18;;;5.10;99.90;;;;;;5037647;28;20251;-78
2022/01/31 00:34:17;;;;;;;31.75;6.47;;;5.10;99.90;;;;;;5038968;28;20208;-75
2022/01/31 00:36:46;;;;;;;24.83;6.75;;;5.00;99.90;;;;;;5030949;28;20256;-77
2022/01/31 00:39:14;;;;;;;27.63;7.07;;;4.90;99.90;;;;;;5034105;28;20219;-78
2022/01/31 00:41:42;;;;;;;34.38;8.88;;;5.00;99.90;;;;;;5034106;28;20232;-78
2022/01/31 00:44:21;;;;;;;31.65;6.15;;;5.10;99.90;;;;;;5041314;28;20200;-76
2022/01/31 00:46:52;;;;;;;24.35;6.72;;;5.10;99.90;;;;;;5034782;28;20733;-75
2022/01/31 00:49:34;;;;;;;28.85;6.82;;;5.20;99.90;;;;;;5033931;28;20287;-76
2022/01/31 00:52:02;;;;;;;28.65;6.75;;;5.30;99.90;;;;;;5034163;28;20847;-77
2022/01/31 00:54:29;;;;;;;19.38;6.00;;;5.20;99.90;;;;;;5042743;28;20199;-75
2022/01/31 00:56:56;;;;;;;21.35;6.68;;;5.30;99.90;;;;;;5035142;28;20262;-77
2022/01/31 00:59:25;;;;;;;35.63;7.00;;;5.30;99.90;;;;;;5034620;28;20650;-77
2022/01/31 01:01:52;;;;;;;26.48;7.70;;;5.20;99.90;;;;;;5034186;28;20292;-75
2022/01/31 01:04:19;;;;;;;25.27;6.47;;;5.30;99.90;;;;;;5034137;28;20196;-77
2022/01/31 01:06:46;;;;;;;22.17;5.57;;;5.20;99.90;;;;;;5034547;28;20262;-76
2022/01/31 01:09:13;;;;;;;15.38;5.20;;;5.20;99.90;;;;;;5034011;28;20639;-74
2022/01/31 01:11:40;;;;;;;22.65;5.43;;;5.10;99.90;;;;;;5033676;28;20300;-76
2022/01/31 01:14:07;;;;;;;21.15;6.57;;;5.10;99.90;;;;;;5034051;28;20220;-75
2022/01/31 01:16:36;;;;;;;37.78;7.90;;;5.10;99.90;;;;;;5033821;28;20558;-75
2022/01/31 01:19:03;;;;;;;29.05;7.10;;;5.00;99.90;;;;;;5042277;28;20204;-76
2022/01/31 01:21:30;;;;;;;19.52;6.43;;;5.00;99.90;;;;;;5041433;28;20238;-74
2022/01/31 01:23:57;;;;;;;21.67;6.00;;;5.00;99.90;;;;;;5034641;28;20270;-78
2022/01/31 01:26:24;;;;;;;36.58;9.43;;;5.00;99.90;;;;;;5033878;28;20200;-78
2022/01/31 01:28:51;;;;;;;28.48;6.97;;;4.90;99.90;;;;;;5031031;28;20230;-76
2022/01/31 01:31:18;;;;;;;24.95;6.18;;;4.90;99.90;;;;;;5032781;28;20228;-75
2022/01/31 01:33:46;;;;;;;25.75;8.07;;;4.80;99.90;;;;;;5033368;28;20208;-75
2022/01/31 01:36:14;;;;;;;21.20;7.38;;;4.60;99.90;;;;;;5033697;28;20200;-75
2022/01/31 01:38:41;;;;;;;30.55;6.40;;;4.40;99.90;;;;;;5034200;28;20212;-75
2022/01/31 01:41:07;;;;;;;26.17;7.45;;;4.40;99.90;;;;;;5034996;28;20278;-74
2022/01/31 01:43:38;;;;;;;25.77;7.88;;;4.40;99.90;;;;;;5043316;28;20196;-75
2022/01/31 01:46:05;;;;;;;23.88;7.22;;;4.50;99.90;;;;;;5040525;28;20563;-75
2022/01/31 01:48:32;;;;;;;19.48;6.45;;;4.50;99.90;;;;;;5037747;28;20300;-75
2022/01/31 01:51:04;;;;;;;28.63;9.25;;;4.60;99.90;;;;;;5037169;28;20220;-75
2022/01/31 01:53:31;;;;;;;21.38;7.45;;;4.70;99.90;;;;;;5041925;28;20667;-75
2022/01/31 01:55:58;;;;;;;24.80;6.53;;;4.70;99.90;;;;;;5034024;28;20238;-74
2022/01/31 01:58:27;;;;;;;28.70;7.55;;;4.80;99.90;;;;;;5046965;28;20292;-75
2022/01/31 02:01:01;;;;;;;29.23;7.35;;;4.80;99.90;;;;;;5051523;28;20575;-75
2022/01/31 02:03:34;;;;;;;19.17;5.70;;;4.80;99.90;;;;;;5044767;28;20254;-75
2022/01/31 02:06:01;;;;;;;22.45;6.88;;;4.90;99.90;;;;;;5048411;28;20224;-75
2022/01/31 02:08:38;;;;;;;18.70;7.53;;;4.90;99.90;;;;;;5046801;28;20212;-75
2022/01/31 02:11:05;;;;;;;36.50;8.05;;;4.90;99.90;;;;;;5035885;28;20252;-75
2022/01/31 02:13:32;;;;;;;23.02;6.57;;;4.90;99.90;;;;;;5040543;28;20605;-76
2022/01/31 02:16:00;;;;;;;18.23;6.45;;;5.00;99.90;;;;;;5029951;28;20288;-74
2022/01/31 02:18:29;;;;;;;33.10;6.78;;;5.00;99.90;;;;;;5032398;28;20265;-74
2022/01/31 02:20:57;;;;;;;20.38;6.38;;;4.90;99.90;;;;;;5035058;28;20619;-74
2022/01/31 02:23:26;;;;;;;24.35;7.60;;;5.00;99.90;;;;;;5032593;28;20713;-74
2022/01/31 02:25:56;;;;;;;18.70;6.65;;;5.00;99.90;;;;;;5032248;28;20199;-76
2022/01/31 02:28:26;;;;;;;25.05;6.80;;;5.00;99.90;;;;;;5040722;28;20231;-76
2022/01/31 02:30:54;;;;;;;28.20;8.88;;;4.90;99.90;;;;;;5031594;28;20224;-75
2022/01/31 02:33:21;;;;;;;15.60;6.20;;;4.80;99.90;;;;;;5032916;28;20200;-75
2022/01/31 02:35:52;;;;;;;33.55;6.63;;;4.70;99.90;;;;;;5035719;28;20639;-77
2022/01/31 02:38:32;;;;;;;13.70;7.22;;;4.60;99.90;;;;;;5039611;28;20213;-75
2022/01/31 02:41:00;;;;;;;28.65;7.47;;;4.70;99.90;;;;;;5032603;28;20196;-75
2022/01/31 02:43:28;;;;;;;19.80;6.22;;;4.70;99.90;;;;;;5032480;28;20273;-75
2022/01/31 02:45:55;;;;;;;15.25;5.68;;;4.70;99.90;;;;;;5038010;28;20262;-75
2022/01/31 02:48:25;;;;;;;20.40;7.82;;;4.60;99.90;;;;;;5032420;28;20203;-75
2022/01/31 02:50:53;;;;;;;27.25;6.32;;;4.50;99.90;;;;;;5026735;28;20277;-75
2022/01/31 02:53:25;;;;;;;22.98;5.45;;;4.50;99.90;;;;;;5039108;28;20199;-76
2022/01/31 02:55:53;;;;;;;19.38;6.05;;;4.60;99.90;;;;;;5036544;28;20208;-76
2022/01/31 02:58:21;;;;;;;20.92;6.50;;;4.60;99.90;;;;;;5037799;28;20200;-76
2022/01/31 03:00:48;;;;;;;31.85;5.57;;;4.60;99.90;;;;;;5025846;28;20215;-76
2022/01/31 03:03:15;;;;;;;25.67;6.10;;;4.60;99.90;;;;;;5040060;28;20596;-76
2022/01/31 03:05:42;;;;;;;22.20;6.13;;;4.60;99.90;;;;;;5037264;28;20292;-76
2022/01/31 03:08:09;;;;;;;34.90;6.60;;;4.70;99.90;;;;;;5036207;28;20208;-76
2022/01/31 03:10:39;;;;;;;24.70;8.38;;;4.70;99.90;;;;;;5035280;28;20223;-77
2022/01/31 03:13:07;;;;;;;19.25;6.53;;;4.60;99.90;;;;;;5037836;28;20232;-76
2022/01/31 03:15:35;;;;;;;23.20;6.72;;;4.60;99.90;;;;;;5036395;28;20295;-77
2022/01/31 03:18:03;;;;;;;19.45;6.40;;;4.60;99.90;;;;;;5036786;28;20196;-76
2022/01/31 03:20:31;;;;;;;20.08;5.93;;;4.50;99.90;;;;;;5036202;28;20570;-76
2022/01/31 03:22:59;;;;;;;23.10;5.72;;;4.60;99.90;;;;;;5036208;28;20350;-75
2022/01/31 03:25:26;;;;;;;21.42;6.82;;;4.60;99.90;;;;;;5025403;28;20220;-76
2022/01/31 03:27:55;;;;;;;23.23;5.95;;;4.60;99.90;;;;;;5044371;28;20663;-75
2022/01/31 03:30:24;;;;;;;24.58;7.22;;;4.60;99.90;;;;;;5035627;28;20260;-75
2022/01/31 03:32:51;;;;;;;28.85;6.80;;;4.60;99.90;;;;;;5034473;28;20532;-76
2022/01/31 03:35:18;;;;;;;21.27;7.20;;;4.60;99.90;;;;;;5052181;28;20236;-75
2022/01/31 03:37:45;;;;;;;23.25;7.95;;;4.70;99.90;;;;;;5044090;28;20291;-76
2022/01/31 03:40:13;;;;;;;21.42;6.97;;;4.70;99.90;;;;;;5042147;28;20200;-76
2022/01/31 03:42:40;;;;;;;24.67;8.45;;;4.80;99.90;;;;;;5036920;28;20256;-76
2022/01/31 03:45:10;;;;;;;22.35;7.78;;;4.70;99.90;;;;;;5041140;28;20250;-76
2022/01/31 03:47:44;;;;;;;25.38;8.20;;;4.70;99.90;;;;;;5044588;28;20236;-76
2022/01/31 03:50:13;;;;;;;27.48;8.80;;;4.80;99.90;;;;;;5026598;28;20199;-74
2022/01/31 03:52:40;;;;;;;19.33;8.65;;;4.80;99.90;;;;;;5037550;28;20238;-75
2022/01/31 03:55:07;;;;;;;25.02;10.60;;;4.70;99.90;;;;;;5040623;28;20204;-75
2022/01/31 03:57:35;;;;;;;26.98;9.93;;;4.70;99.90;;;;;;5035079;28;20283;-75
2022/01/31 04:00:04;;;;;;;27.23;9.98;;;4.70;99.90;;;;;;5034115;28;20291;-76
2022/01/31 04:02:36;;;;;;;24.10;10.80;;;4.60;99.90;;;;;;5035520;28;20220;-75
2022/01/31 04:05:05;;;;;;;20.83;9.63;;;4.60;99.90;;;;;;5035129;28;20283;-75
2022/01/31 04:07:32;;;;;;;25.67;11.32;;;4.50;99.90;;;;;;5043161;28;20260;-75
2022/01/31 04:09:59;;;;;;;24.23;10.80;;;4.50;99.90;;;;;;5034321;28;20282;-75
2022/01/31 04:12:26;;;;;;;35.60;11.23;;;4.40;99.90;;;;;;5080388;22;20215;-80
2022/01/31 04:14:53;;;;;;;23.55;10.43;;;4.50;99.90;;;;;;5057643;28;20196;-81
2022/01/31 04:17:20;;;;;;;26.90;11.95;;;4.40;99.90;;;;;;5059816;28;20195;-80
2022/01/31 04:19:49;;;;;;;23.77;12.07;;;4.30;99.90;;;;;;5046008;28;20196;-79
2022/01/31 04:22:19;;;;;;;21.52;12.50;;;4.20;99.90;;;;;;5052594;28;20218;-79
2022/01/31 04:24:47;;;;;;;41.20;15.30;;;4.20;99.90;;;;;;5040498;28;20216;-79
2022/01/31 04:27:18;;;;;;;26.95;12.50;;;4.10;99.90;;;;;;5018368;28;20205;-80
2022/01/31 04:29:47;;;;;;;23.23;13.65;;;4.10;99.90;;;;;;5036196;28;20213;-80
2022/01/31 04:32:14;;;;;;;26.02;13.93;;;3.90;99.90;;;;;;5022212;28;20346;-80
2022/01/31 04:34:41;;;;;;;21.92;12.23;;;4.00;99.90;;;;;;5022796;28;20240;-80
2022/01/31 04:37:10;;;;;;;25.63;13.73;;;4.00;99.90;;;;;;5033804;28;20679;-80
2022/01/31 04:39:38;;;;;;;31.10;15.05;;;3.80;99.90;;;;;;5025931;28;20208;-79
2022/01/31 04:42:06;;;;;;;36.50;15.77;;;3.80;99.90;;;;;;5027746;28;20224;-78
2022/01/31 04:44:34;;;;;;;22.52;13.23;;;3.80;99.90;;;;;;5024479;28;20237;-80
2022/01/31 04:47:01;;;;;;;29.27;14.30;;;3.80;99.90;;;;;;5034637;28;20210;-79
2022/01/31 04:49:28;;;;;;;27.10;15.48;;;3.80;99.90;;;;;;5031386;28;20227;-79
2022/01/31 04:51:55;;;;;;;34.83;15.98;;;3.70;99.90;;;;;;5031969;28;20619;-80
2022/01/31 04:54:23;;;;;;;32.38;16.80;;;3.70;99.90;;;;;;5021751;28;20252;-78
2022/01/31 04:56:50;;;;;;;24.30;14.13;;;3.70;99.90;;;;;;5020824;28;20291;-79
2022/01/31 04:59:18;;;;;;;20.83;14.07;;;3.60;99.90;;;;;;5032119;28;20200;-79
2022/01/31 05:01:47;;;;;;;30.15;17.05;;;3.60;99.90;;;;;;5044138;28;20272;-80
2022/01/31 05:04:15;;;;;;;20.98;13.40;;;3.60;99.90;;;;;;5024237;28;20227;-79
2022/01/31 05:06:44;;;;;;;30.73;15.88;;;3.50;99.90;;;;;;5045487;28;20204;-79
2022/01/31 05:09:12;;;;;;;24.90;15.00;;;3.50;99.90;;;;;;5035920;28;20262;-78
2022/01/31 05:11:40;;;;;;;25.48;16.50;;;3.40;99.90;;;;;;5031533;28;20224;-78
2022/01/31 05:14:07;;;;;;;21.95;16.30;;;3.30;99.90;;;;;;5029264;28;20207;-79
2022/01/31 05:16:34;;;;;;;27.80;16.45;;;3.20;99.90;;;;;;5031700;28;20209;-81
2022/01/31 05:19:01;;;;;;;27.35;16.10;;;3.10;99.90;;;;;;5008402;28;20276;-80
2022/01/31 05:21:28;;;;;;;25.00;15.63;;;3.20;99.90;;;;;;5023868;28;20209;-80
2022/01/31 05:23:55;;;;;;;26.25;14.23;;;3.10;99.90;;;;;;5028153;28;20282;-80
2022/01/31 05:26:22;;;;;;;24.98;17.55;;;3.10;99.90;;;;;;5021938;28;20223;-80
2022/01/31 05:28:50;;;;;;;25.73;15.68;;;3.10;99.90;;;;;;5035536;28;20204;-80
2022/01/31 05:31:17;;;;;;;23.42;16.08;;;3.10;99.90;;;;;;5028484;28;20235;-81
2022/01/31 05:33:44;;;;;;;27.92;16.27;;;3.10;99.90;;;;;;5033587;28;20292;-80
2022/01/31 05:36:10;;;;;;;27.08;17.50;;;3.10;99.90;;;;;;5022127;28;20288;-80
2022/01/31 05:38:39;;;;;;;22.65;16.08;;;3.10;99.90;;;;;;5031691;28;20234;-80
2022/01/31 05:41:08;;;;;;;26.02;15.55;;;3.10;99.90;;;;;;5012089;28;20201;-82
2022/01/31 05:43:36;;;;;;;25.88;15.43;;;3.00;99.90;;;;;;5031454;28;20221;-81
2022/01/31 05:46:05;;;;;;;17.00;14.23;;;3.10;99.90;;;;;;5034107;28;20277;-79
2022/01/31 05:48:31;;;;;;;21.23;15.05;;;3.10;99.90;;;;;;5038307;28;20199;-80
2022/01/31 05:50:59;;;;;;;36.75;14.77;;;3.20;99.90;;;;;;5038603;28;20216;-79
2022/01/31 05:53:26;;;;;;;25.08;15.32;;;3.30;99.90;;;;;;5033060;28;20328;-79
2022/01/31 05:55:54;;;;;;;18.27;16.27;;;3.40;99.90;;;;;;5019987;28;20264;-80
2022/01/31 05:58:21;;;;;;;17.50;14.48;;;3.20;99.90;;;;;;5014779;28;20215;-79
2022/01/31 06:00:47;;;;;;;21.80;14.82;;;3.30;99.90;;;;;;5015049;28;20212;-82
2022/01/31 06:03:38;;;;;;;21.42;14.52;;;3.30;99.90;;;;;;5034457;28;20250;-82
2022/01/31 06:06:05;;;;;;;22.23;14.60;;;3.30;99.90;;;;;;5026835;28;20203;-80
2022/01/31 06:08:32;;;;;;;22.17;14.95;;;3.30;99.90;;;;;;5023788;28;20276;-80
2022/01/31 06:10:59;;;;;;;19.33;14.10;;;3.30;99.90;;;;;;5015594;28;20201;-79
2022/01/31 06:13:29;;;;;;;20.35;15.05;;;3.40;99.90;;;;;;5031114;28;20232;-80
2022/01/31 06:15:56;;;;;;;16.92;13.32;;;3.30;99.90;;;;;;5024428;28;20320;-80
2022/01/31 06:18:23;;;;;;;17.73;13.75;;;3.40;99.90;;;;;;5036155;28;20231;-81
2022/01/31 06:20:51;;;;;;;20.05;14.27;;;3.40;99.90;;;;;;5023239;28;20193;-81
2022/01/31 06:23:18;;;;;;;21.27;14.75;;;3.30;99.90;;;;;;5022558;28;20306;-80
2022/01/31 06:25:45;;;;;;;17.95;13.55;;;3.30;99.90;;;;;;5028547;28;20941;-80
2022/01/31 06:28:12;;;;;;;19.70;14.57;;;3.30;99.90;;;;;;5034211;28;20781;-79
2022/01/31 06:30:39;;;;;;;22.90;16.13;;;3.30;99.90;;;;;;5030969;28;20264;-79
2022/01/31 06:33:05;;;;;;;18.83;14.60;;;3.30;99.90;;;;;;5021062;28;20230;-79
2022/01/31 06:35:32;;;;;;;19.40;14.77;;;3.30;99.90;;;;;;5032537;28;20208;-79
2022/01/31 06:38:00;;;;;;;19.20;15.73;;;3.20;99.90;;;;;;5031554;28;20211;-80
2022/01/31 06:40:27;;;;;;;19.50;14.73;;;3.30;99.90;;;;;;5030415;28;20291;-80
2022/01/31 06:42:54;;;;;;;21.02;16.45;;;3.30;99.90;;;;;;5025657;28;20522;-79
2022/01/31 06:45:21;;;;;;;24.27;15.98;;;3.30;99.90;;;;;;5035884;28;20200;-80
2022/01/31 06:47:48;;;;;;;17.40;13.23;;;3.40;99.90;;;;;;5018616;28;20229;-79
2022/01/31 06:50:15;;;;;;;23.00;15.82;;;3.30;99.90;;;;;;5024565;28;20239;-78
2022/01/31 06:52:42;;;;;;;18.60;13.95;;;3.30;99.90;;;;;;5018709;28;20235;-80
2022/01/31 06:55:19;;;;;;;22.23;15.95;;;3.30;99.90;;;;;;5041119;28;20228;-78
2022/01/31 06:57:46;;;;;;;19.65;14.00;;;3.40;99.90;;;;;;5040710;28;20196;-79
2022/01/31 07:00:13;;;;;;;19.88;14.55;;;3.30;99.90;;;;;;5049415;28;20211;-79
2022/01/31 07:02:40;;;;;;;23.95;15.75;;;3.20;99.90;;;;;;5046009;28;20240;-79
2022/01/31 07:05:08;;;;;;;21.10;15.40;;;3.30;99.90;;;;;;5046470;28;20224;-80
2022/01/31 07:07:36;;;;;;;22.40;14.48;;;3.30;99.90;;;;;;5030375;28;20185;-81
2022/01/31 07:10:05;;;;;;;22.85;16.40;;;3.30;99.90;;;;;;5030430;28;20216;-81
2022/01/31 07:12:36;;;;;;;21.42;15.30;;;3.30;99.90;;;;;;5039512;28;20303;-80
2022/01/31 07:15:05;;;;;;;20.92;15.25;;;3.40;99.90;;;;;;5035322;28;20251;-78
2022/01/31 07:17:32;;;;;;;27.42;17.60;;;3.30;99.90;;;;;;5036306;28;20196;-79
2022/01/31 07:19:59;;;;;;;20.77;16.70;;;3.30;99.90;;;;;;5033628;28;20209;-81
2022/01/31 07:22:32;;;;;;;24.90;16.48;;;3.30;99.90;;;;;;5040655;28;20243;-80
2022/01/31 07:25:04;;;;;;;24.45;17.02;;;3.40;99.90;;;;;;5028538;28;20814;-79
2022/01/31 07:27:33;;;;;;;23.92;15.45;;;3.40;99.90;;;;;;5035210;28;20202;-80
2022/01/31 07:30:00;;;;;;;26.98;16.85;;;3.50;99.90;;;;;;5037262;28;20292;-80
2022/01/31 07:32:29;;;;;;;25.17;17.60;;;3.60;99.90;;;;;;5031347;28;20236;-82
2022/01/31 07:34:57;;;;;;;24.70;17.63;;;3.70;99.90;;;;;;5019867;28;20221;-79
2022/01/31 07:37:24;;;;;;;21.63;15.70;;;3.90;99.90;;;;;;5018100;28;20220;-80
2022/01/31 07:39:51;;;;;;;23.85;17.05;;;4.00;99.90;;;;;;5020006;28;20259;-80
2022/01/31 07:42:19;;;;;;;18.67;14.52;;;4.00;99.90;;;;;;5024734;28;20280;-80
2022/01/31 07:44:47;;;;;;;19.25;15.23;;;4.10;99.90;;;;;;5034487;28;20288;-79
2022/01/31 07:47:14;;;;;;;25.27;16.02;;;4.00;99.90;;;;;;5041317;28;20287;-79
2022/01/31 07:49:41;;;;;;;22.02;15.93;;;4.60;99.90;;;;;;5022505;28;20233;-79
2022/01/31 07:52:08;;;;;;;19.73;16.08;;;5.30;99.90;;;;;;5032277;28;20337;-79
2022/01/31 07:54:35;;;;;;;16.38;13.10;;;5.90;99.90;;;;;;5024164;28;20207;-78
2022/01/31 07:57:02;;;;;;;16.65;13.75;;;5.80;99.90;;;;;;5028099;28;20229;-79
2022/01/31 07:59:29;;;;;;;18.45;13.18;;;5.80;99.90;;;;;;5020027;28;20236;-78
2022/01/31 08:01:57;;;;;;;18.35;13.45;;;5.80;99.90;;;;;;5017619;28;20292;-79
2022/01/31 08:04:24;;;;;;;17.15;13.68;;;5.60;99.90;;;;;;5025726;28;20205;-79
2022/01/31 08:06:51;;;;;;;20.13;11.63;;;5.80;99.90;;;;;;5018720;28;20291;-78
2022/01/31 08:09:17;;;;;;;14.38;11.48;;;5.80;99.90;;;;;;5031341;28;20231;-78
2022/01/31 08:11:44;;;;;;;14.25;11.50;;;6.20;99.90;;;;;;5025739;28;20253;-78
2022/01/31 08:14:13;;;;;;;9.85;8.88;;;6.30;99.90;;;;;;5028162;28;20201;-78
2022/01/31 08:16:42;;;;;;;16.80;13.25;;;6.30;99.90;;;;;;5038839;28;20209;-79
2022/01/31 08:19:11;;;;;;;11.75;10.55;;;6.10;99.90;;;;;;5022553;28;20572;-80
2022/01/31 08:21:38;;;;;;;12.20;11.00;;;6.20;99.90;;;;;;5032555;28;20240;-78
2022/01/31 08:24:06;;;;;;;15.68;10.98;;;6.60;99.90;;;;;;5040295;28;20707;-79
2022/01/31 08:26:33;;;;;;;13.80;12.30;;;6.90;99.90;;;;;;5024207;28;20633;-80
2022/01/31 08:29:03;;;;;;;15.23;13.35;;;6.80;99.90;;;;;;5035266;28;20297;-80
2022/01/31 08:31:34;;;;;;;17.40;12.77;;;6.80;99.90;;;;;;5036373;28;20218;-80
2022/01/31 08:34:19;;;;;;;16.55;12.07;;;6.60;99.90;;;;;;5026723;28;20238;-80
2022/01/31 08:36:48;;;;;;;19.45;13.48;;;6.40;99.90;;;;;;5013807;28;20209;-81
2022/01/31 08:39:17;;;;;;;17.90;13.68;;;6.30;99.90;;;;;;5008931;28;20200;-81
2022/01/31 08:41:47;;;;;;;16.27;12.10;;;6.30;99.90;;;;;;5024718;28;20208;-80
2022/01/31 08:44:17;;;;;;;17.02;11.27;;;6.20;99.90;;;;;;5021101;28;20262;-80
2022/01/31 08:46:45;;;;;;;24.60;12.18;;;6.20;99.90;;;;;;5022717;28;20205;-79
2022/01/31 08:49:13;;;;;;;12.50;11.10;;;6.10;99.90;;;;;;5022338;28;20236;-79
2022/01/31 08:51:40;;;;;;;11.75;10.10;;;6.20;99.90;;;;;;5020539;28;21241;-78
2022/01/31 08:54:10;;;;;;;19.75;13.55;;;6.70;99.90;;;;;;5022131;28;20290;-80
2022/01/31 08:56:40;;;;;;;15.48;9.95;;;6.70;99.90;;;;;;5026070;28;20201;-79
2022/01/31 08:59:08;;;;;;;14.10;8.80;;;6.50;99.90;;;;;;5029185;28;20213;-81
2022/01/31 09:01:35;;;;;;;10.55;8.30;;;6.50;99.90;;;;;;5025307;28;20231;-80
2022/01/31 09:04:04;;;;;;;10.00;6.45;;;6.60;99.90;;;;;;5031715;28;20288;-79
2022/01/31 09:06:32;;;;;;;12.35;6.50;;;6.70;99.90;;;;;;5027903;28;20864;-80
2022/01/31 09:09:00;;;;;;;10.10;5.30;;;6.80;99.90;;;;;;5034333;28;20239;-80
2022/01/31 09:11:29;;;;;;;11.88;6.07;;;6.70;99.90;;;;;;5039318;28;20236;-79
2022/01/31 09:13:56;;;;;;;9.77;5.00;;;6.90;99.90;;;;;;5022439;28;20241;-77
2022/01/31 09:16:23;;;;;;;12.00;5.43;;;7.00;99.90;;;;;;5034228;28;20271;-79
2022/01/31 09:18:50;;;;;;;16.63;4.78;;;7.20;99.90;;;;;;5018599;28;20242;-80
2022/01/31 09:21:17;;;;;;;12.82;4.70;;;7.40;99.90;;;;;;5025091;28;20335;-80
2022/01/31 09:23:44;;;;;;;13.95;4.85;;;7.50;99.90;;;;;;5036446;28;20284;-80
2022/01/31 09:26:11;;;;;;;10.25;4.55;;;7.40;99.90;;;;;;5043276;28;20189;-80
2022/01/31 09:28:39;;;;;;;11.18;3.58;;;7.30;99.90;;;;;;5037558;28;20216;-80
2022/01/31 09:31:06;;;;;;;11.70;3.05;;;7.40;99.90;;;;;;5052621;28;20237;-78
2022/01/31 09:33:33;;;;;;;9.43;2.88;;;7.30;99.90;;;;;;5051750;28;20215;-79
2022/01/31 09:35:59;;;;;;;12.63;3.50;;;7.10;99.90;;;;;;5043041;28;20208;-80
2022/01/31 09:38:26;;;;;;;8.73;3.00;;;7.10;99.90;;;;;;5037961;28;20192;-80
2022/01/31 09:40:54;;;;;;;16.02;4.53;;;7.00;99.90;;;;;;5039931;28;20204;-79
2022/01/31 09:46:31;;;;;;;9.52;3.00;;;7.00;99.90;;;;;;5035240;28;20199;-79
2022/01/31 09:48:58;;;;;;;11.93;3.40;;;7.00;99.90;;;;;;5026281;28;20322;-79
2022/01/31 09:51:27;;;;;;;10.68;3.20;;;7.10;99.90;;;;;;5023412;28;20211;-80
2022/01/31 09:53:55;;;;;;;8.38;2.88;;;7.20;99.90;;;;;;5032125;28;20255;-80
2022/01/31 09:56:24;;;;;;;13.52;3.75;;;7.20;99.90;;;;;;5027671;28;20233;-80
2022/01/31 09:58:53;;;;;;;6.03;2.85;;;7.10;99.90;;;;;;5026831;28;20206;-80
2022/01/31 10:01:26;;;;;;;10.52;2.97;;;7.10;99.90;;;;;;5025499;28;20227;-79
2022/01/31 10:03:55;;;;;;;6.22;2.30;;;7.10;99.90;;;;;;5024548;28;20225;-80
2022/01/31 10:06:24;;;;;;;10.48;3.15;;;7.20;99.90;;;;;;5023127;28;20226;-81
2022/01/31 10:09:01;;;;;;;9.00;3.80;;;7.30;99.90;;;;;;5029677;28;20508;-79
2022/01/31 10:11:29;;;;;;;6.95;2.45;;;7.40;99.90;;;;;;5040126;28;20222;-80
2022/01/31 10:44:58;;;;;;;8.13;3.72;;;7.70;99.90;;;;;;4869922;23;20233;-78
2022/01/31 10:53:10;;;;;;;11.45;3.78;;;7.60;99.90;;;;;;5008420;28;20590;-77
2022/01/31 10:55:37;;;;;;;13.07;4.10;;;7.70;99.90;;;;;;5020446;28;20307;-77
2022/01/31 10:58:06;;;;;;;8.82;4.20;;;7.70;99.90;;;;;;5024133;28;20633;-78
2022/01/31 11:00:35;;;;;;;8.70;3.67;;;7.70;99.90;;;;;;5003170;28;20567;-77
2022/01/31 11:03:35;;;;;;;7.32;3.55;;;7.60;99.90;;;;;;5019908;28;20231;-76
2022/01/31 11:06:08;;;;;;;14.32;5.55;;;7.70;99.90;;;;;;5008513;28;20325;-76
2022/01/31 11:08:36;;;;;;;8.82;3.53;;;7.70;99.90;;;;;;5011858;28;20211;-76
2022/01/31 11:11:04;;;;;;;9.00;3.30;;;7.70;99.90;;;;;;5010855;28;20200;-76
2022/01/31 11:13:34;;;;;;;12.85;3.05;;;7.70;99.90;;;;;;5012199;28;20294;-77
2022/01/31 11:16:06;;;;;;;11.85;4.03;;;7.70;99.90;;;;;;5010487;28;20296;-76
2022/01/31 11:18:35;;;;;;;17.10;5.13;;;7.60;99.90;;;;;;5013280;28;20223;-77
2022/01/31 11:21:04;;;;;;;14.20;3.53;;;7.60;99.90;;;;;;5010995;28;20200;-77
2022/01/31 11:23:37;;;;;;;17.63;4.13;;;7.60;99.90;;;;;;5012356;28;20200;-75
2022/01/31 11:26:07;;;;;;;7.78;3.00;;;7.70;99.90;;;;;;5016093;28;20252;-76
2022/01/31 11:28:36;;;;;;;5.68;2.53;;;7.80;99.90;;;;;;5016610;28;20204;-77
2022/01/31 11:31:04;;;;;;;7.63;4.22;;;7.70;99.90;;;;;;5013201;28;20205;-77
2022/01/31 11:33:32;;;;;;;15.88;6.05;;;7.70;99.90;;;;;;5018638;28;20231;-77
2022/01/31 11:36:00;;;;;;;16.58;8.82;;;7.80;99.90;;;;;;5015784;28;20193;-76
2022/01/31 11:38:34;;;;;;;15.38;8.20;;;7.70;99.90;;;;;;5008116;28;20236;-77
2022/01/31 11:41:03;;;;;;;12.27;8.70;;;7.80;99.90;;;;;;5014591;28;20237;-76
2022/01/31 11:43:32;;;;;;;16.60;8.95;;;7.80;99.90;;;;;;5015412;28;20269;-76
2022/01/31 11:46:00;;;;;;;14.00;10.15;;;7.70;99.90;;;;;;5014720;28;20260;-76
2022/01/31 11:48:31;;;;;;;15.73;9.20;;;7.80;99.90;;;;;;5003976;28;20652;-76
2022/01/31 11:51:00;;;;;;;17.60;11.15;;;7.80;99.90;;;;;;5014633;28;20208;-76
2022/01/31 11:53:30;;;;;;;17.65;12.20;;;7.70;99.90;;;;;;5015648;28;20228;-77
2022/01/31 11:56:02;;;;;;;22.98;15.15;;;7.60;99.90;;;;;;5016029;28;20658;-76
2022/01/31 11:58:32;;;;;;;20.20;13.43;;;7.50;99.90;;;;;;5016066;28;20591;-77
2022/01/31 12:01:02;;;;;;;13.98;11.05;;;7.50;99.90;;;;;;5014961;28;20200;-76
2022/01/31 12:03:31;;;;;;;19.23;12.82;;;7.40;99.90;;;;;;5013518;28;20507;-77
2022/01/31 12:06:08;;;;;;;16.35;11.18;;;7.40;99.90;;;;;;5018425;28;20492;-77
2022/01/31 12:08:38;;;;;;;16.48;12.60;;;7.40;99.90;;;;;;5019375;28;20196;-77
2022/01/31 12:11:12;;;;;;;17.10;12.07;;;7.40;99.90;;;;;;5017696;28;20211;-77
2022/01/31 12:13:43;;;;;;;16.23;11.82;;;7.50;99.90;;;;;;5019311;28;20289;-76
2022/01/31 12:16:43;;;;;;;17.00;13.35;;;7.50;99.90;;;;;;5018664;28;20208;-76
2022/01/31 12:22:30;;;;;;;20.63;14.05;;;7.50;99.90;;;;;;5022550;28;20235;-76
2022/01/31 12:24:57;;;;;;;16.00;12.70;;;7.40;99.90;;;;;;5019031;28;20211;-78
2022/01/31 12:27:29;;;;;;;17.63;11.75;;;7.40;99.90;;;;;;5017934;28;20556;-76
2022/01/31 12:29:57;;;;;;;20.95;13.88;;;7.30;99.90;;;;;;5018281;28;20577;-75
2022/01/31 12:32:32;;;;;;;24.15;14.32;;;7.30;99.90;;;;;;5010513;28;20630;-76
2022/01/31 12:35:03;;;;;;;18.17;13.40;;;7.20;99.90;;;;;;5012490;28;20337;-76
2022/01/31 12:37:34;;;;;;;24.63;14.82;;;7.20;99.90;;;;;;5031557;28;20214;-75
2022/01/31 12:40:15;;;;;;;16.85;12.52;;;7.20;99.90;;;;;;5019574;28;20191;-77
2022/01/31 12:46:06;;;;;;;19.90;14.05;;;7.10;99.90;;;;;;5019587;28;20206;-77
2022/01/31 12:48:34;;;;;;;18.17;12.38;;;7.00;99.90;;;;;;5026778;28;20203;-76
2022/01/31 12:51:06;;;;;;;12.85;10.95;;;7.00;99.90;;;;;;5014681;28;20201;-77
2022/01/31 12:53:48;;;;;;;15.02;12.82;;;7.00;99.90;;;;;;5021369;28;20232;-75
2022/01/31 12:56:29;;;;;;;17.15;13.55;;;6.90;99.90;;;;;;5012069;28;20237;-77
2022/01/31 12:59:00;;;;;;;17.63;12.57;;;6.80;99.90;;;;;;5018059;28;20217;-75
2022/01/31 13:01:32;;;;;;;14.82;11.02;;;6.80;99.90;;;;;;5008841;28;20239;-76
2022/01/31 13:04:02;;;;;;;15.18;11.30;;;6.80;99.90;;;;;;5016283;28;20209;-75
2022/01/31 13:06:42;;;;;;;16.67;11.43;;;6.80;99.90;;;;;;5013772;28;20252;-76
2022/01/31 13:09:18;;;;;;;12.82;10.55;;;6.70;99.90;;;;;;5023367;28;20215;-76
2022/01/31 13:11:47;;;;;;;17.80;12.52;;;6.70;99.90;;;;;;5017267;28;20231;-76
2022/01/31 13:14:17;;;;;;;14.93;11.55;;;6.70;99.90;;;;;;5015130;28;20214;-76
2022/01/31 13:16:50;;;;;;;19.35;11.32;;;6.70;99.90;;;;;;5000253;28;20211;-75
2022/01/31 13:19:24;;;;;;;12.50;10.32;;;6.70;99.90;;;;;;5017927;28;20470;-76
2022/01/31 13:21:53;;;;;;;15.02;11.13;;;6.80;99.90;;;;;;5016745;28;20312;-77
2022/01/31 13:24:37;;;;;;;14.75;10.77;;;6.70;99.90;;;;;;5011322;28;20204;-77
2022/01/31 13:27:06;;;;;;;14.25;11.95;;;6.70;99.90;;;;;;5016432;28;20203;-76
2022/01/31 13:29:39;;;;;;;16.30;12.10;;;6.70;99.90;;;;;;5016604;28;20211;-76
2022/01/31 13:32:32;;;;;;;13.27;10.65;;;6.70;99.90;;;;;;5011852;28;20314;-77
2022/01/31 13:35:01;;;;;;;13.23;9.43;;;6.70;99.90;;;;;;5015130;28;20299;-76
2022/01/31 13:37:48;;;;;;;15.32;11.63;;;6.70;99.90;;;;;;5017407;28;20203;-75
2022/01/31 13:40:18;;;;;;;16.70;11.40;;;6.60;99.90;;;;;;5025504;28;20203;-75